Decoded Metar for VTSG (KRBI in THAILAND) (IATA:N/A) | Meteo·Mobile Aviation Weather
aviador You're here:

VTSG Decoded Metar

KRBI in THAILAND
Report Time2018-10-20 13:00:00
UTC Time2018-10-20 13:21:43
Flight Rules vfr VFR
WindCalm
Visibility9999 m
Phenomena:N/A
Clouds:Few 020 Hf
CeilingNone
Temp24°C (ISA +9)
Dew Point24°C (100% RH)
QNH1012 hPa
Density Alt1,572 ft
Elevation82 ft
Report Wrong Elevation
Raw Report
VTSG 201300Z 00000KT 9999 FEW020 24/24 Q1012 NOSIG=

Extra information for VTSG:More info

Metar Taf Metar & Taf Last 4 Metars F.Rules Stats Wind Profile Meteogram Temp Stats Airport Information Weather charts Add Link Nearby VenuesMetar ALERT Operation Metar Decoded Social comments